Time;durP1;ratioP1;P1;durP2;ratioP2;P2;SDS_P1;SDS_P2;PMS_P1;PMS_P2;Temp;Humidity;BMP_temperature;BMP_pressure;BME280_temperature;BME280_humidity;BME280_pressure;Samples;Min_cycle;Max_cycle;Signal;HPM_P1;HPM_P2
2022/07/17 00:01:15;;;;;;;3.33;2.30;;;18.10;57.10;;;;;;4954990;28;20287;-88
2022/07/17 00:03:41;;;;;;;6.63;3.00;;;18.20;57.00;;;;;;4938901;29;20208;-86
2022/07/17 00:06:07;;;;;;;9.60;2.73;;;18.20;57.30;;;;;;4955210;28;20177;-86
2022/07/17 00:08:33;;;;;;;4.57;2.30;;;18.10;57.40;;;;;;4955161;28;20180;-86
2022/07/17 00:10:59;;;;;;;5.53;2.70;;;18.00;57.70;;;;;;4957264;28;20220;-86
2022/07/17 00:13:24;;;;;;;7.10;2.70;;;18.10;57.70;;;;;;4974704;28;20419;-85
2022/07/17 00:15:51;;;;;;;4.70;2.30;;;18.10;57.60;;;;;;4974713;28;20427;-86
2022/07/17 00:18:17;;;;;;;5.85;3.03;;;18.00;57.70;;;;;;4974513;28;20208;-85
2022/07/17 00:20:43;;;;;;;8.00;3.03;;;17.90;58.60;;;;;;4975762;28;20251;-86
2022/07/17 00:23:09;;;;;;;4.38;3.22;;;17.80;59.30;;;;;;4975075;28;20222;-86
2022/07/17 00:25:35;;;;;;;5.60;2.50;;;17.70;59.50;;;;;;4974281;28;20235;-88
2022/07/17 00:28:02;;;;;;;7.17;3.40;;;17.70;59.80;;;;;;4972943;28;20427;-87
2022/07/17 00:30:28;;;;;;;6.15;3.15;;;17.70;59.90;;;;;;4973264;28;20450;-87
2022/07/17 00:32:54;;;;;;;9.63;3.20;;;17.70;59.90;;;;;;4976085;28;20213;-87
2022/07/17 00:35:20;;;;;;;6.67;2.60;;;17.70;60.10;;;;;;4974401;28;20179;-87
2022/07/17 00:37:48;;;;;;;4.40;3.40;;;17.70;60.30;;;;;;4959829;28;20270;-87
2022/07/17 00:40:22;;;;;;;5.20;2.28;;;17.60;60.20;;;;;;4975592;28;20196;-87
2022/07/17 00:42:48;;;;;;;5.60;2.50;;;17.70;59.80;;;;;;4974626;28;20631;-87
2022/07/17 00:45:14;;;;;;;7.33;2.53;;;17.70;59.80;;;;;;4973787;28;20290;-87
2022/07/17 00:47:55;;;;;;;5.57;2.80;;;17.70;60.10;;;;;;4973772;28;20419;-87
2022/07/17 00:50:32;;;;;;;5.38;3.05;;;17.70;59.80;;;;;;4974304;28;20448;-87
2022/07/17 00:52:58;;;;;;;5.70;3.42;;;17.70;59.50;;;;;;4958886;28;20185;-87
2022/07/17 00:55:24;;;;;;;6.97;2.67;;;17.70;59.50;;;;;;4976086;28;20248;-87
2022/07/17 00:57:54;;;;;;;7.78;3.28;;;17.60;60.10;;;;;;4974548;28;20514;-88
2022/07/17 01:00:21;;;;;;;6.95;3.80;;;17.50;60.50;;;;;;4941166;28;20208;-87
2022/07/17 01:02:53;;;;;;;6.05;3.40;;;17.50;60.80;;;;;;4954982;28;20239;-86
2022/07/17 01:05:20;;;;;;;9.48;4.18;;;17.40;61.20;;;;;;4956868;28;20271;-87
2022/07/17 01:07:46;;;;;;;5.90;2.88;;;17.30;61.50;;;;;;4956019;28;20603;-87
2022/07/17 01:10:13;;;;;;;4.70;3.85;;;17.30;61.60;;;;;;4956398;28;20210;-88
2022/07/17 01:12:40;;;;;;;5.57;3.05;;;17.40;61.30;;;;;;4955040;28;20188;-87
2022/07/17 01:15:08;;;;;;;10.60;3.72;;;17.40;61.10;;;;;;4956739;28;20173;-87
2022/07/17 01:17:35;;;;;;;9.45;4.00;;;17.30;61.40;;;;;;4955430;28;20177;-87
2022/07/17 01:20:06;;;;;;;4.90;2.60;;;17.40;61.20;;;;;;4958150;28;20271;-87
2022/07/17 01:22:32;;;;;;;5.00;3.40;;;17.40;61.80;;;;;;4957224;28;20176;-87
2022/07/17 01:24:58;;;;;;;8.07;3.70;;;17.40;61.40;;;;;;4958051;28;20212;-88
2022/07/17 01:27:24;;;;;;;7.37;3.43;;;17.40;61.10;;;;;;4958334;28;20234;-86
2022/07/17 01:29:49;;;;;;;6.40;3.23;;;17.40;61.20;;;;;;4960693;28;20199;-88
2022/07/17 01:32:15;;;;;;;6.27;3.00;;;17.40;61.20;;;;;;4963637;28;20173;-86
2022/07/17 01:34:41;;;;;;;4.97;2.70;;;17.40;60.80;;;;;;4974796;28;20192;-85
2022/07/17 01:37:06;;;;;;;4.17;2.60;;;17.30;61.50;;;;;;4961632;28;20332;-87
2022/07/17 01:42:16;;;;;;;7.50;3.90;;;17.30;61.20;;;;;;4958157;29;20383;-86
2022/07/17 01:44:42;;;;;;;8.17;3.00;;;17.20;62.10;;;;;;4957301;28;20579;-87
2022/07/17 01:47:08;;;;;;;4.97;3.00;;;17.20;62.00;;;;;;4954576;28;20224;-88
2022/07/17 01:49:34;;;;;;;7.93;3.10;;;17.20;61.80;;;;;;4953916;28;20227;-88
2022/07/17 01:51:59;;;;;;;8.60;3.50;;;17.20;61.90;;;;;;4955190;28;20203;-87
2022/07/17 01:54:29;;;;;;;5.03;3.00;;;17.20;61.70;;;;;;4954968;28;20184;-86
2022/07/17 01:56:54;;;;;;;6.78;3.80;;;17.10;62.30;;;;;;4952905;28;20424;-87
2022/07/17 01:59:21;;;;;;;3.40;2.90;;;17.10;62.30;;;;;;4964611;28;20187;-87
2022/07/17 02:01:46;;;;;;;4.78;3.00;;;17.10;62.10;;;;;;4974092;28;20199;-87
2022/07/17 02:04:12;;;;;;;8.40;3.50;;;17.10;62.30;;;;;;4972728;28;20569;-87
2022/07/17 02:06:38;;;;;;;5.17;2.93;;;17.10;62.60;;;;;;4973227;28;20184;-86
2022/07/17 02:09:04;;;;;;;9.80;4.10;;;17.00;62.80;;;;;;4972690;28;20801;-87
2022/07/17 02:11:29;;;;;;;4.97;3.03;;;17.00;63.30;;;;;;4972488;28;20742;-86
2022/07/17 02:13:55;;;;;;;9.40;3.90;;;16.90;63.00;;;;;;4974240;28;20186;-86
2022/07/17 02:16:20;;;;;;;9.50;3.40;;;16.90;63.20;;;;;;4974316;28;20250;-87
2022/07/17 02:18:46;;;;;;;8.60;4.37;;;16.90;62.90;;;;;;4972592;28;20188;-87
2022/07/17 02:21:12;;;;;;;4.40;3.07;;;16.80;63.50;;;;;;4972195;28;20265;-87
2022/07/17 02:23:38;;;;;;;6.93;2.53;;;16.80;63.20;;;;;;4973336;28;20180;-87
2022/07/17 02:26:04;;;;;;;8.67;3.90;;;16.80;63.40;;;;;;4975914;28;20263;-87
2022/07/17 02:28:29;;;;;;;3.13;2.80;;;16.80;63.70;;;;;;4974915;28;20411;-87
2022/07/17 02:30:55;;;;;;;6.77;3.10;;;16.70;64.00;;;;;;4975456;28;20220;-87
2022/07/17 02:33:21;;;;;;;4.20;3.20;;;16.70;64.20;;;;;;4975437;28;20199;-86
2022/07/17 02:35:47;;;;;;;7.60;3.37;;;16.70;64.10;;;;;;4975665;28;20415;-87
2022/07/17 02:38:12;;;;;;;5.37;4.07;;;16.80;63.80;;;;;;4959102;28;20213;-87
2022/07/17 02:40:38;;;;;;;4.00;3.27;;;16.70;64.10;;;;;;4959371;28;20253;-87
2022/07/17 02:43:03;;;;;;;5.37;3.30;;;16.60;64.00;;;;;;4975156;28;20238;-87
2022/07/17 02:45:29;;;;;;;9.20;3.77;;;16.60;64.70;;;;;;4975414;28;20303;-87
2022/07/17 02:47:55;;;;;;;8.43;3.90;;;16.50;64.90;;;;;;4974248;28;20203;-86
2022/07/17 02:50:21;;;;;;;6.40;3.40;;;16.50;65.60;;;;;;4975398;28;20203;-86
2022/07/17 02:52:49;;;;;;;4.38;3.05;;;16.50;65.40;;;;;;4974977;28;20179;-87
2022/07/17 02:55:16;;;;;;;6.68;3.58;;;16.50;65.10;;;;;;4975245;28;20188;-87
2022/07/17 02:57:42;;;;;;;9.75;3.95;;;16.60;64.90;;;;;;4974502;28;20746;-87
2022/07/17 03:00:11;;;;;;;4.93;4.03;;;16.60;64.30;;;;;;4958073;28;20265;-87
2022/07/17 03:02:37;;;;;;;4.72;3.90;;;16.60;64.20;;;;;;4955542;28;20564;-87
2022/07/17 03:05:05;;;;;;;6.68;3.90;;;16.70;63.90;;;;;;4957059;28;20223;-86
2022/07/17 03:07:30;;;;;;;4.75;3.40;;;16.60;63.90;;;;;;4956360;28;20180;-87
2022/07/17 03:09:56;;;;;;;5.50;3.50;;;16.50;64.20;;;;;;4955769;28;21912;-85
2022/07/17 03:12:22;;;;;;;6.83;3.60;;;16.40;64.70;;;;;;4955778;28;20187;-87
2022/07/17 03:14:48;;;;;;;8.70;3.77;;;16.40;64.80;;;;;;4955578;28;20184;-87
2022/07/17 03:17:14;;;;;;;7.80;3.87;;;16.40;65.00;;;;;;4955088;28;20190;-87
2022/07/17 03:19:40;;;;;;;9.23;3.75;;;16.40;64.70;;;;;;4955741;28;20456;-87
2022/07/17 03:22:05;;;;;;;6.00;4.07;;;16.40;64.90;;;;;;4956268;28;20229;-87
2022/07/17 03:24:31;;;;;;;3.97;3.40;;;16.30;65.60;;;;;;4964709;28;20205;-87
2022/07/17 03:26:57;;;;;;;8.10;3.20;;;16.30;65.70;;;;;;4975576;28;20181;-87
2022/07/17 03:29:23;;;;;;;7.25;3.60;;;16.30;65.20;;;;;;4973851;28;20185;-87
2022/07/17 03:31:49;;;;;;;7.00;3.67;;;16.30;65.10;;;;;;4959551;28;20204;-87
2022/07/17 03:34:15;;;;;;;4.60;3.60;;;16.30;65.50;;;;;;4965708;28;20187;-87
2022/07/17 03:36:41;;;;;;;6.72;3.13;;;16.20;65.80;;;;;;4955869;28;20187;-87
2022/07/17 03:39:07;;;;;;;5.37;3.60;;;16.20;65.60;;;;;;4957385;28;20270;-87
2022/07/17 03:41:32;;;;;;;5.67;3.10;;;16.30;65.60;;;;;;4956267;28;20200;-87
2022/07/17 03:43:58;;;;;;;6.77;3.70;;;16.20;65.50;;;;;;4957576;28;20504;-87
2022/07/17 03:46:24;;;;;;;5.63;3.50;;;16.30;65.30;;;;;;4956208;28;20254;-87
2022/07/17 03:48:50;;;;;;;8.97;3.90;;;16.30;65.10;;;;;;4955920;28;20187;-87
2022/07/17 03:51:16;;;;;;;4.63;4.00;;;16.30;65.00;;;;;;4956613;28;20193;-87
2022/07/17 03:53:41;;;;;;;12.27;4.25;;;16.20;65.40;;;;;;4958089;28;20443;-87
2022/07/17 03:56:07;;;;;;;8.73;4.33;;;16.20;65.70;;;;;;4958519;28;20187;-87
2022/07/17 03:58:34;;;;;;;5.90;3.47;;;16.20;65.70;;;;;;4960346;28;20194;-87
2022/07/17 04:01:01;;;;;;;7.70;4.18;;;16.20;65.90;;;;;;4976715;28;20212;-87
2022/07/17 04:03:27;;;;;;;7.63;4.03;;;16.10;66.30;;;;;;4976738;28;20175;-87
2022/07/17 04:05:53;;;;;;;9.50;4.07;;;16.10;66.80;;;;;;4976545;28;20180;-87
2022/07/17 04:08:18;;;;;;;6.00;3.43;;;16.10;67.10;;;;;;4975034;28;20184;-87
2022/07/17 04:10:45;;;;;;;6.60;3.70;;;16.10;66.90;;;;;;4975473;28;20572;-87
2022/07/17 04:13:11;;;;;;;6.80;3.83;;;16.20;66.40;;;;;;4977385;28;20575;-87
2022/07/17 04:15:52;;;;;;;7.95;3.70;;;16.20;66.10;;;;;;4976416;28;20204;-87
2022/07/17 04:18:20;;;;;;;5.90;3.75;;;16.20;66.00;;;;;;4991362;28;20198;-86
2022/07/17 04:20:47;;;;;;;5.78;3.95;;;16.20;66.40;;;;;;4992283;28;20377;-86
2022/07/17 04:23:13;;;;;;;6.75;3.55;;;16.10;66.60;;;;;;4992861;28;20183;-86
2022/07/17 04:25:39;;;;;;;5.20;3.60;;;16.20;66.30;;;;;;4978151;28;20230;-87
2022/07/17 04:28:05;;;;;;;6.15;4.25;;;16.30;66.00;;;;;;4975533;28;20195;-87
2022/07/17 04:30:30;;;;;;;5.60;4.17;;;16.30;66.10;;;;;;4974214;28;20199;-86
2022/07/17 04:32:57;;;;;;;6.63;4.03;;;16.30;65.50;;;;;;4973707;28;20284;-87
2022/07/17 04:35:24;;;;;;;6.80;3.47;;;16.20;65.50;;;;;;4973729;28;20722;-87
2022/07/17 04:37:50;;;;;;;8.10;4.03;;;16.20;65.50;;;;;;4973404;28;20184;-86
2022/07/17 04:40:16;;;;;;;6.37;4.10;;;16.30;65.20;;;;;;4973095;28;20358;-86
2022/07/17 04:42:42;;;;;;;6.23;3.70;;;16.30;65.20;;;;;;4975346;28;20223;-86
2022/07/17 04:45:09;;;;;;;6.90;4.35;;;16.20;65.50;;;;;;4973568;28;20298;-87
2022/07/17 04:47:35;;;;;;;4.25;3.85;;;16.20;65.80;;;;;;4973240;28;20215;-87
2022/07/17 04:50:00;;;;;;;5.47;3.20;;;16.20;65.70;;;;;;4973449;28;20691;-87
2022/07/17 04:52:26;;;;;;;6.10;3.70;;;16.20;65.70;;;;;;4975646;28;20188;-87
2022/07/17 04:54:52;;;;;;;5.20;3.50;;;16.30;65.70;;;;;;4976662;28;20184;-87
2022/07/17 04:57:18;;;;;;;5.60;4.33;;;16.40;65.50;;;;;;4973265;28;20195;-87
2022/07/17 04:59:43;;;;;;;5.97;3.90;;;16.40;66.00;;;;;;4960614;28;20180;-87
2022/07/17 05:02:09;;;;;;;4.37;3.13;;;16.30;66.10;;;;;;4956308;28;20177;-85
2022/07/17 05:04:35;;;;;;;6.17;3.40;;;16.40;65.80;;;;;;4954904;28;21014;-86
2022/07/17 05:07:01;;;;;;;7.38;3.63;;;16.40;65.10;;;;;;4956309;28;20173;-87
2022/07/17 05:09:27;;;;;;;5.70;4.00;;;16.60;64.50;;;;;;4955806;28;20256;-87
2022/07/17 05:11:52;;;;;;;4.77;3.10;;;16.60;64.50;;;;;;4965687;28;20439;-87
2022/07/17 05:14:18;;;;;;;4.70;3.20;;;16.60;64.70;;;;;;4974810;28;20214;-87
2022/07/17 05:16:44;;;;;;;7.33;3.50;;;16.70;64.80;;;;;;4976159;28;20186;-88
2022/07/17 05:19:09;;;;;;;4.47;3.17;;;16.80;64.10;;;;;;4975318;28;20180;-87
2022/07/17 05:21:35;;;;;;;5.70;3.50;;;16.90;64.10;;;;;;4981466;28;20207;-86
2022/07/17 05:24:01;;;;;;;5.10;3.37;;;17.00;64.20;;;;;;4997190;28;20204;-85
2022/07/17 05:26:27;;;;;;;4.90;3.03;;;17.20;63.90;;;;;;4995534;28;20191;-87
2022/07/17 05:28:53;;;;;;;8.53;3.90;;;17.50;63.40;;;;;;4959018;28;20463;-87
2022/07/17 05:31:19;;;;;;;5.90;2.63;;;18.20;61.60;;;;;;4972037;28;20203;-88
2022/07/17 05:33:45;;;;;;;5.00;2.50;;;19.20;58.00;;;;;;4974248;28;20184;-87
2022/07/17 05:36:10;;;;;;;6.50;3.50;;;20.30;54.70;;;;;;4973974;28;20431;-88
2022/07/17 05:38:37;;;;;;;4.60;2.30;;;21.30;51.40;;;;;;4973574;28;20880;-88
2022/07/17 05:41:03;;;;;;;3.63;2.10;;;22.20;47.50;;;;;;4973662;28;20298;-88
2022/07/17 05:43:29;;;;;;;4.43;2.07;;;22.80;45.60;;;;;;4974873;28;20427;-88
2022/07/17 05:45:56;;;;;;;3.57;2.60;;;23.10;44.00;;;;;;4974628;28;20419;-88
2022/07/17 05:48:23;;;;;;;5.00;2.80;;;23.20;43.30;;;;;;4973022;28;20180;-87
2022/07/17 05:50:48;;;;;;;5.67;2.57;;;23.10;44.00;;;;;;4973240;28;20970;-86
2022/07/17 05:53:14;;;;;;;5.07;2.20;;;23.40;43.20;;;;;;4974973;28;20415;-89
2022/07/17 05:55:54;;;;;;;3.30;1.93;;;23.30;43.20;;;;;;4973589;28;20214;-90
2022/07/17 05:58:20;;;;;;;6.97;2.90;;;23.40;42.90;;;;;;4975368;28;20904;-91
2022/07/17 06:00:46;;;;;;;5.33;2.90;;;23.40;42.30;;;;;;4977211;28;20469;-91
2022/07/17 06:03:11;;;;;;;3.40;1.93;;;23.40;42.70;;;;;;4977069;28;20457;-87
2022/07/17 06:05:37;;;;;;;3.47;2.23;;;23.40;42.30;;;;;;4978008;28;20255;-89
2022/07/17 06:08:03;;;;;;;4.40;2.00;;;23.50;42.60;;;;;;4976759;28;20180;-88
2022/07/17 06:10:29;;;;;;;4.90;2.27;;;23.50;42.30;;;;;;4975289;28;20203;-87
2022/07/17 06:12:56;;;;;;;4.20;2.33;;;23.70;41.60;;;;;;4975941;28;20419;-88
2022/07/17 06:15:23;;;;;;;5.27;2.27;;;23.80;41.00;;;;;;4978084;28;20430;-88
2022/07/17 06:17:49;;;;;;;4.03;1.70;;;23.90;40.80;;;;;;4975337;28;20440;-87
2022/07/17 06:20:16;;;;;;;2.20;2.00;;;24.00;40.80;;;;;;4975655;28;20467;-88
2022/07/17 06:22:42;;;;;;;6.20;2.40;;;24.30;40.60;;;;;;4975910;28;20437;-87
2022/07/17 06:25:09;;;;;;;2.23;2.00;;;24.30;40.70;;;;;;4976242;28;20518;-87
2022/07/17 06:27:38;;;;;;;2.90;1.73;;;24.40;40.50;;;;;;4977706;28;20425;-87
2022/07/17 06:30:04;;;;;;;3.00;1.50;;;24.50;39.90;;;;;;4978971;28;20439;-88
2022/07/17 06:32:30;;;;;;;2.33;1.90;;;24.80;39.80;;;;;;4976657;28;20462;-87
2022/07/17 06:34:55;;;;;;;3.47;1.90;;;25.20;38.30;;;;;;4976056;28;20773;-87
2022/07/17 06:37:21;;;;;;;2.40;1.90;;;25.40;37.30;;;;;;4976063;28;20237;-87
2022/07/17 06:39:47;;;;;;;3.43;2.10;;;25.50;37.20;;;;;;4978150;28;20184;-87
2022/07/17 06:42:13;;;;;;;5.63;2.17;;;25.70;36.20;;;;;;4977098;28;20423;-87
2022/07/17 06:44:38;;;;;;;4.33;2.10;;;25.60;36.30;;;;;;4977463;28;20207;-88
2022/07/17 06:47:04;;;;;;;5.60;2.37;;;25.60;36.30;;;;;;4977405;28;20186;-87
2022/07/17 06:49:30;;;;;;;7.77;2.17;;;25.50;36.30;;;;;;4978456;28;20431;-86
2022/07/17 06:51:56;;;;;;;3.30;1.80;;;25.40;36.70;;;;;;4978575;28;20202;-87
2022/07/17 06:54:25;;;;;;;3.17;1.80;;;25.40;36.60;;;;;;4980661;28;20218;-88
2022/07/17 06:56:53;;;;;;;2.83;1.63;;;25.40;36.90;;;;;;4983220;28;20240;-86
2022/07/17 06:59:18;;;;;;;4.97;2.10;;;25.30;37.20;;;;;;4981869;28;20450;-88
2022/07/17 07:01:44;;;;;;;2.93;1.73;;;24.60;39.50;;;;;;4956808;28;20452;-88
2022/07/17 07:04:10;;;;;;;3.57;2.33;;;24.70;39.30;;;;;;4957496;28;20712;-88
2022/07/17 07:06:36;;;;;;;3.73;1.80;;;25.10;37.90;;;;;;4957389;28;20181;-88
2022/07/17 07:09:02;;;;;;;3.53;1.90;;;25.00;37.30;;;;;;4958182;28;20186;-88
2022/07/17 07:11:27;;;;;;;3.10;1.50;;;25.10;37.80;;;;;;4961785;28;20264;-88
2022/07/17 07:13:53;;;;;;;4.60;2.10;;;25.00;37.60;;;;;;4976556;28;20190;-88
2022/07/17 07:16:20;;;;;;;3.10;1.87;;;25.10;37.20;;;;;;4977125;28;20248;-88
2022/07/17 07:18:46;;;;;;;4.47;1.70;;;24.90;36.60;;;;;;4961847;28;20189;-87
2022/07/17 07:21:11;;;;;;;4.47;2.10;;;24.60;38.30;;;;;;4979070;28;20476;-88
2022/07/17 07:23:37;;;;;;;4.43;1.97;;;24.20;39.10;;;;;;4991942;28;20432;-87
2022/07/17 07:26:03;;;;;;;2.33;1.40;;;23.90;40.50;;;;;;4987161;28;20290;-88
2022/07/17 07:28:28;;;;;;;4.37;1.50;;;24.40;38.90;;;;;;4981577;28;20196;-87
2022/07/17 07:30:54;;;;;;;3.40;1.60;;;24.50;38.50;;;;;;4974667;28;20295;-87
2022/07/17 07:33:20;;;;;;;2.50;1.50;;;24.70;38.10;;;;;;4975283;28;20206;-87
2022/07/17 07:35:46;;;;;;;2.93;1.60;;;24.80;38.70;;;;;;4975225;28;20238;-87
2022/07/17 07:38:12;;;;;;;5.83;1.73;;;24.50;38.30;;;;;;4973730;28;20417;-87
2022/07/17 07:40:38;;;;;;;2.47;1.60;;;23.80;39.90;;;;;;4974450;28;20443;-87
2022/07/17 07:43:03;;;;;;;4.33;1.90;;;23.60;41.20;;;;;;4974288;28;20172;-87
2022/07/17 07:45:30;;;;;;;5.30;2.20;;;23.30;43.40;;;;;;4975300;28;20697;-87
2022/07/17 07:47:56;;;;;;;6.63;1.60;;;23.10;41.80;;;;;;4973855;28;20203;-87
2022/07/17 07:50:24;;;;;;;3.90;1.90;;;22.80;42.70;;;;;;4975581;28;20468;-86
2022/07/17 07:52:50;;;;;;;2.10;1.37;;;22.60;42.90;;;;;;4974459;28;20186;-87
2022/07/17 07:55:16;;;;;;;3.23;1.40;;;22.40;43.20;;;;;;4974024;28;20923;-87
2022/07/17 07:57:42;;;;;;;5.93;1.90;;;22.40;43.60;;;;;;4973333;28;20416;-87
2022/07/17 08:00:10;;;;;;;3.23;1.73;;;22.30;44.20;;;;;;4957938;28;20572;-88
2022/07/17 08:02:36;;;;;;;2.23;1.40;;;22.20;44.30;;;;;;4956045;28;20913;-86
2022/07/17 08:05:02;;;;;;;3.47;1.57;;;22.20;44.10;;;;;;4939019;29;20479;-86
2022/07/17 08:07:29;;;;;;;2.70;1.43;;;22.20;44.40;;;;;;4953971;28;20263;-87
2022/07/17 08:09:55;;;;;;;5.60;1.87;;;22.20;44.20;;;;;;4954495;28;20940;-87
2022/07/17 08:12:22;;;;;;;3.30;2.03;;;22.20;44.60;;;;;;4967337;28;20416;-88
2022/07/17 08:14:49;;;;;;;2.80;1.50;;;22.10;44.50;;;;;;4974133;28;20426;-87
2022/07/17 08:17:15;;;;;;;4.40;1.70;;;21.80;45.60;;;;;;4973617;28;20422;-87
2022/07/17 08:19:40;;;;;;;5.73;2.73;;;21.90;45.40;;;;;;4974095;28;20423;-87
2022/07/17 08:22:06;;;;;;;2.70;1.70;;;21.90;45.50;;;;;;4974410;28;20187;-87
2022/07/17 08:24:32;;;;;;;7.33;1.70;;;21.60;46.10;;;;;;4974538;28;20515;-87
2022/07/17 08:26:57;;;;;;;3.40;2.03;;;21.70;46.20;;;;;;4978513;28;20179;-87
2022/07/17 08:29:23;;;;;;;2.53;1.60;;;21.60;47.30;;;;;;4989283;28;20184;-87
2022/07/17 08:31:49;;;;;;;3.87;1.60;;;21.70;46.20;;;;;;4958346;28;20299;-87
2022/07/17 08:34:15;;;;;;;5.73;1.57;;;21.90;45.70;;;;;;4974343;28;20672;-87
2022/07/17 08:36:42;;;;;;;4.80;1.80;;;21.90;46.00;;;;;;4975340;28;20494;-87
2022/07/17 08:39:08;;;;;;;4.10;1.63;;;22.00;45.50;;;;;;4973873;28;20431;-87
2022/07/17 08:41:38;;;;;;;5.73;1.57;;;22.00;44.60;;;;;;4974181;28;20489;-87
2022/07/17 08:44:08;;;;;;;2.00;1.20;;;22.00;44.80;;;;;;4975563;28;20459;-88
2022/07/17 08:46:39;;;;;;;1.87;1.40;;;22.00;43.60;;;;;;4957546;28;20431;-87
2022/07/17 08:49:06;;;;;;;4.13;1.67;;;22.00;43.60;;;;;;4974029;28;20482;-87
2022/07/17 08:51:34;;;;;;;2.97;1.40;;;22.00;43.80;;;;;;4973998;28;20454;-87
2022/07/17 08:54:00;;;;;;;2.30;1.57;;;22.00;44.60;;;;;;4974673;28;20931;-87
2022/07/17 08:56:27;;;;;;;2.80;1.63;;;22.00;45.70;;;;;;4974215;28;20431;-87
2022/07/17 08:58:53;;;;;;;6.63;2.67;;;22.20;43.90;;;;;;4968529;28;20924;-87
2022/07/17 09:01:20;;;;;;;3.40;1.53;;;22.20;43.30;;;;;;4956853;28;20444;-88
2022/07/17 09:03:56;;;;;;;4.03;1.70;;;22.20;43.00;;;;;;4956002;28;20470;-88
2022/07/17 09:06:22;;;;;;;2.37;1.90;;;22.30;43.20;;;;;;4957895;29;20432;-88
2022/07/17 09:08:48;;;;;;;4.47;2.10;;;22.30;44.00;;;;;;4971014;28;20416;-87
2022/07/17 09:11:13;;;;;;;1.90;1.53;;;22.10;44.70;;;;;;4978822;28;20436;-87
2022/07/17 09:13:45;;;;;;;5.30;1.83;;;22.20;43.80;;;;;;4992812;28;20436;-86
2022/07/17 09:16:12;;;;;;;5.20;1.87;;;22.30;43.80;;;;;;4992674;28;20460;-87
2022/07/17 09:18:55;;;;;;;2.63;1.87;;;22.30;43.60;;;;;;4974083;28;20431;-87
2022/07/17 09:21:29;;;;;;;2.33;1.87;;;22.20;44.10;;;;;;4974565;28;20489;-88
2022/07/17 09:24:05;;;;;;;8.37;2.07;;;22.30;44.10;;;;;;4975290;28;20450;-88
2022/07/17 09:26:33;;;;;;;3.40;1.90;;;22.40;43.60;;;;;;4974493;28;20431;-86
2022/07/17 09:29:01;;;;;;;2.50;1.70;;;22.30;44.70;;;;;;4972255;28;20420;-87
2022/07/17 09:31:32;;;;;;;2.47;1.73;;;22.10;45.00;;;;;;4972566;28;20435;-87
2022/07/17 09:33:58;;;;;;;2.07;1.87;;;22.30;44.00;;;;;;4974816;28;20509;-88
2022/07/17 09:36:25;;;;;;;4.20;2.57;;;22.40;44.20;;;;;;4977022;28;20426;-88
2022/07/17 09:38:55;;;;;;;5.97;1.43;;;22.40;44.20;;;;;;4977567;28;20489;-87
2022/07/17 09:41:23;;;;;;;3.80;2.00;;;22.50;44.40;;;;;;4961296;28;20451;-88
2022/07/17 09:43:52;;;;;;;2.90;1.73;;;22.50;43.80;;;;;;4977272;28;20559;-87
2022/07/17 09:46:27;;;;;;;2.23;2.03;;;22.60;43.70;;;;;;4981083;28;20947;-87
2022/07/17 09:48:58;;;;;;;2.00;1.70;;;22.60;44.00;;;;;;4977225;28;20768;-88
2022/07/17 09:51:29;;;;;;;3.20;2.27;;;22.60;44.10;;;;;;4978697;28;20443;-87
2022/07/17 09:54:00;;;;;;;3.20;2.00;;;22.70;43.80;;;;;;4979147;28;20415;-87
2022/07/17 09:56:28;;;;;;;7.63;3.33;;;22.60;44.50;;;;;;4988421;28;20445;-86
2022/07/17 09:59:09;;;;;;;2.27;2.00;;;22.70;43.90;;;;;;4973496;28;20422;-87
2022/07/17 10:01:36;;;;;;;5.03;2.70;;;22.80;43.10;;;;;;4956847;28;20438;-87
2022/07/17 10:04:03;;;;;;;4.33;2.80;;;22.80;43.50;;;;;;4956721;28;20499;-87
2022/07/17 10:06:29;;;;;;;3.57;2.50;;;22.80;43.10;;;;;;4956959;28;20499;-86
2022/07/17 10:08:56;;;;;;;6.20;3.50;;;22.90;42.00;;;;;;4956198;28;20420;-87
2022/07/17 10:11:24;;;;;;;3.33;2.53;;;23.00;41.40;;;;;;4963177;28;20434;-87
2022/07/17 10:13:52;;;;;;;2.30;2.10;;;23.00;41.90;;;;;;4976183;28;20420;-87
2022/07/17 10:16:30;;;;;;;5.47;2.57;;;23.00;42.50;;;;;;4976300;28;20442;-87
2022/07/17 10:18:58;;;;;;;3.03;2.47;;;22.90;42.40;;;;;;4977221;28;20966;-87
2022/07/17 10:21:25;;;;;;;6.10;2.40;;;22.90;42.40;;;;;;4976013;28;20458;-87
2022/07/17 10:23:54;;;;;;;2.97;2.17;;;23.00;42.20;;;;;;4975958;28;20506;-88
2022/07/17 10:26:38;;;;;;;2.57;2.00;;;23.10;42.50;;;;;;4976167;28;20419;-87
2022/07/17 10:29:28;;;;;;;4.40;2.20;;;23.20;42.10;;;;;;4977607;28;20425;-88
2022/07/17 10:31:54;;;;;;;5.23;2.90;;;23.10;43.30;;;;;;4977878;28;20445;-87
2022/07/17 10:34:46;;;;;;;4.07;2.70;;;23.20;41.50;;;;;;4978558;28;20426;-87
2022/07/17 10:37:25;;;;;;;3.23;2.40;;;23.20;41.30;;;;;;4976324;28;20694;-87
2022/07/17 10:40:04;;;;;;;7.07;2.80;;;23.30;41.40;;;;;;4976000;28;20523;-87
2022/07/17 10:42:56;;;;;;;3.80;2.70;;;23.40;41.30;;;;;;4976124;28;20517;-87
2022/07/17 10:45:27;;;;;;;2.47;2.27;;;23.50;40.30;;;;;;4976328;28;20473;-87
2022/07/17 10:48:03;;;;;;;5.80;2.70;;;23.50;40.50;;;;;;4976554;28;20416;-87
2022/07/17 10:50:35;;;;;;;5.00;3.10;;;23.30;40.70;;;;;;4960951;28;20481;-87
2022/07/17 10:53:10;;;;;;;4.20;2.50;;;22.90;42.00;;;;;;4979851;28;20399;-87
2022/07/17 10:55:41;;;;;;;3.90;2.10;;;22.90;42.60;;;;;;4977676;28;20418;-87
2022/07/17 10:58:17;;;;;;;3.37;2.30;;;23.10;42.00;;;;;;4977274;28;20419;-88
2022/07/17 11:00:43;;;;;;;3.87;2.83;;;23.30;41.70;;;;;;4961835;28;20428;-88
2022/07/17 11:03:11;;;;;;;3.90;2.90;;;23.50;41.00;;;;;;4977101;28;20423;-87
2022/07/17 11:05:39;;;;;;;4.87;2.40;;;23.40;40.50;;;;;;4961640;28;20492;-87
2022/07/17 11:08:09;;;;;;;5.27;3.50;;;23.30;40.70;;;;;;4957209;28;20924;-88
2022/07/17 11:10:36;;;;;;;7.77;2.60;;;23.60;40.10;;;;;;4956143;28;20498;-87
2022/07/17 11:13:10;;;;;;;6.30;3.10;;;23.80;39.50;;;;;;4975756;28;20756;-88
2022/07/17 11:15:40;;;;;;;5.17;3.50;;;23.90;39.40;;;;;;4959696;28;20533;-87
2022/07/17 11:18:15;;;;;;;3.40;3.10;;;24.00;39.20;;;;;;4975726;28;20435;-88
2022/07/17 11:20:51;;;;;;;4.33;3.27;;;24.00;39.70;;;;;;4976597;28;20474;-88
2022/07/17 11:23:17;;;;;;;4.37;3.30;;;23.70;40.20;;;;;;4980128;28;20522;-87
2022/07/17 11:25:57;;;;;;;4.10;2.63;;;23.60;39.90;;;;;;4992787;28;20961;-87
2022/07/17 11:28:38;;;;;;;6.53;3.00;;;23.50;40.50;;;;;;4973838;28;20439;-87
2022/07/17 11:31:23;;;;;;;3.77;2.87;;;23.70;39.50;;;;;;4973694;28;20898;-87
2022/07/17 11:34:04;;;;;;;4.97;2.70;;;24.00;38.70;;;;;;4974215;28;20526;-87
2022/07/17 11:36:35;;;;;;;3.50;2.73;;;24.10;38.90;;;;;;4975386;28;20867;-86
2022/07/17 11:39:05;;;;;;;3.37;3.07;;;24.10;38.80;;;;;;4973619;28;20423;-87
2022/07/17 11:41:42;;;;;;;3.00;2.70;;;24.20;37.70;;;;;;4974010;28;20982;-87
2022/07/17 11:44:13;;;;;;;3.67;2.67;;;24.40;38.30;;;;;;4973667;28;20498;-87
2022/07/17 11:46:41;;;;;;;4.37;3.33;;;24.40;38.00;;;;;;4973497;28;20942;-86
2022/07/17 11:49:07;;;;;;;5.40;3.60;;;24.50;37.20;;;;;;4973972;28;20483;-87
2022/07/17 11:51:39;;;;;;;6.37;3.70;;;24.00;37.50;;;;;;4973728;28;20478;-87
2022/07/17 11:54:07;;;;;;;5.90;4.10;;;24.30;36.90;;;;;;4975297;28;20422;-87
2022/07/17 11:56:33;;;;;;;4.83;4.40;;;24.60;35.60;;;;;;4973525;28;20423;-87
2022/07/17 11:58:59;;;;;;;5.67;4.07;;;24.70;34.70;;;;;;4966465;28;20428;-87
2022/07/17 12:01:30;;;;;;;6.93;3.53;;;24.20;35.80;;;;;;4954714;28;20513;-87
2022/07/17 12:03:59;;;;;;;4.73;3.80;;;24.30;36.20;;;;;;4954296;28;20421;-87
2022/07/17 12:06:29;;;;;;;4.63;3.17;;;24.60;35.80;;;;;;4955233;28;20423;-87
2022/07/17 12:08:55;;;;;;;3.90;2.83;;;24.70;36.50;;;;;;4954131;28;20799;-87
2022/07/17 12:11:21;;;;;;;3.47;3.17;;;24.40;38.10;;;;;;4960849;28;20439;-88
2022/07/17 12:13:48;;;;;;;4.70;3.27;;;24.40;36.90;;;;;;4974063;28;20176;-87
2022/07/17 12:16:29;;;;;;;4.97;3.70;;;24.70;35.60;;;;;;4973939;28;20419;-87
2022/07/17 12:18:57;;;;;;;4.37;3.33;;;24.90;34.90;;;;;;4975167;28;20420;-87
2022/07/17 12:21:23;;;;;;;4.83;3.57;;;25.00;34.50;;;;;;4974098;28;20827;-88
2022/07/17 12:23:58;;;;;;;4.37;3.50;;;25.20;33.80;;;;;;4974231;28;20916;-87
2022/07/17 12:26:24;;;;;;;3.70;2.90;;;25.20;33.80;;;;;;4975888;28;20411;-88
2022/07/17 12:28:50;;;;;;;5.90;3.37;;;25.20;34.50;;;;;;4974357;28;21010;-87
2022/07/17 12:31:16;;;;;;;3.57;2.73;;;25.20;34.00;;;;;;4975010;28;20439;-88
2022/07/17 12:33:42;;;;;;;3.90;3.40;;;25.30;33.90;;;;;;4975205;28;20180;-87
2022/07/17 12:36:08;;;;;;;3.80;3.37;;;25.40;34.10;;;;;;4975756;28;20451;-87
2022/07/17 12:38:35;;;;;;;6.13;3.63;;;25.40;33.80;;;;;;4975260;28;20426;-87
2022/07/17 12:41:00;;;;;;;5.67;3.50;;;25.40;34.00;;;;;;4976355;28;20447;-88
2022/07/17 12:43:26;;;;;;;4.50;3.33;;;25.50;33.20;;;;;;4976970;28;20422;-87
2022/07/17 12:45:52;;;;;;;6.33;3.50;;;25.60;32.60;;;;;;4978966;28;20208;-88
2022/07/17 12:48:18;;;;;;;4.20;3.20;;;25.70;31.50;;;;;;4977871;28;20225;-87
2022/07/17 12:50:44;;;;;;;3.33;3.03;;;25.80;31.60;;;;;;4993340;28;20448;-87
2022/07/17 12:53:10;;;;;;;7.20;3.70;;;25.80;32.30;;;;;;4997399;28;20168;-87